createdAt,value
2019-04-26T00:00:44.648Z,3.10
2019-04-26T00:01:44.572Z,2.70
2019-04-26T00:02:44.488Z,3.00
2019-04-26T00:03:44.411Z,3.20
2019-04-26T00:04:44.330Z,3.20
2019-04-26T00:05:44.248Z,3.10
2019-04-26T00:06:44.174Z,3.20
2019-04-26T00:07:44.086Z,3.00
2019-04-26T00:08:44.012Z,3.10
2019-04-26T00:09:43.937Z,3.10
2019-04-26T00:10:43.848Z,3.20
2019-04-26T00:11:43.786Z,3.10
2019-04-26T00:12:43.687Z,3.00
2019-04-26T00:13:43.612Z,3.00
2019-04-26T00:14:43.537Z,3.10
2019-04-26T00:15:43.449Z,2.90
2019-04-26T00:16:43.418Z,3.00
2019-04-26T00:17:43.299Z,3.20
2019-04-26T00:18:43.213Z,3.40
2019-04-26T00:19:43.137Z,2.90
2019-04-26T00:20:43.064Z,3.10
2019-04-26T00:21:42.974Z,2.90
2019-04-26T00:22:42.900Z,3.20
2019-04-26T00:23:42.813Z,3.10
2019-04-26T00:24:42.740Z,3.00
2019-04-26T00:25:42.650Z,3.10
2019-04-26T00:26:42.575Z,3.50
2019-04-26T00:27:42.502Z,3.20
2019-04-26T00:28:42.423Z,3.30
2019-04-26T00:29:42.339Z,3.10
2019-04-26T00:30:42.254Z,3.60
2019-04-26T00:31:42.178Z,3.20
2019-04-26T00:32:42.102Z,3.10
2019-04-26T00:33:42.014Z,3.20
2019-04-26T00:34:41.940Z,3.30
2019-04-26T00:35:47.789Z,3.20
2019-04-26T00:36:41.777Z,3.40
2019-04-26T00:37:41.701Z,3.30
2019-04-26T00:38:41.615Z,3.30
2019-04-26T00:39:41.545Z,3.40
2019-04-26T00:40:41.454Z,3.70
2019-04-26T00:41:41.380Z,3.60
2019-04-26T00:42:41.302Z,3.70
2019-04-26T00:43:41.214Z,3.30
2019-04-26T00:44:41.140Z,3.40
2019-04-26T00:45:41.065Z,3.30
2019-04-26T00:46:40.977Z,3.50
2019-04-26T00:47:40.902Z,3.40
2019-04-26T00:48:40.815Z,3.40
2019-04-26T00:49:43.896Z,3.80
2019-04-26T00:50:40.666Z,3.80
2019-04-26T00:51:40.579Z,3.70
2019-04-26T00:52:40.597Z,3.70
2019-04-26T00:53:40.417Z,3.70
2019-04-26T00:54:40.341Z,3.60
2019-04-26T00:55:40.255Z,3.60
2019-04-26T00:56:40.181Z,3.90
2019-04-26T00:57:40.103Z,3.80
2019-04-26T00:58:40.016Z,3.60
2019-04-26T00:59:39.946Z,3.70
2019-04-26T01:00:39.870Z,3.80
2019-04-26T01:01:39.792Z,3.60
2019-04-26T01:02:39.705Z,3.90
2019-04-26T01:03:39.621Z,4.00
2019-04-26T01:04:39.559Z,3.60
2019-04-26T01:05:39.467Z,4.00
2019-04-26T01:06:39.380Z,3.60
2019-04-26T01:07:39.304Z,3.90
2019-04-26T01:08:39.217Z,3.70
2019-04-26T01:09:39.201Z,3.80
2019-04-26T01:10:39.067Z,3.90
2019-04-26T01:11:38.981Z,3.90
2019-04-26T01:12:38.908Z,4.00
2019-04-26T01:13:38.819Z,4.00
2019-04-26T01:14:38.743Z,4.20
2019-04-26T01:15:38.656Z,4.30
2019-04-26T01:16:38.580Z,4.00
2019-04-26T01:17:38.506Z,4.20
2019-04-26T01:18:38.419Z,4.00
2019-04-26T01:19:38.344Z,4.00
2019-04-26T01:20:38.263Z,4.20
2019-04-26T01:21:38.181Z,3.90
2019-04-26T01:22:38.106Z,3.90
2019-04-26T01:23:38.020Z,4.50
2019-04-26T01:24:37.946Z,3.80
2019-04-26T01:25:37.869Z,4.20
2019-04-26T01:26:37.781Z,4.20
2019-04-26T01:27:37.706Z,4.10
2019-04-26T01:28:37.631Z,4.10
2019-04-26T01:29:37.548Z,4.30
2019-04-26T01:30:37.470Z,3.90
2019-04-26T01:31:37.387Z,4.20
2019-04-26T01:32:37.307Z,4.60
2019-04-26T01:33:37.223Z,4.10
2019-04-26T01:34:37.146Z,4.50
2019-04-26T01:35:37.057Z,4.30
2019-04-26T01:36:36.982Z,4.00
2019-04-26T01:37:36.908Z,3.90
2019-04-26T01:38:36.821Z,4.30
2019-04-26T01:39:36.746Z,4.70
2019-04-26T01:40:36.659Z,4.50
2019-04-26T01:41:36.584Z,4.80
2019-04-26T01:42:36.497Z,4.20
2019-04-26T01:43:36.422Z,4.30
2019-04-26T01:44:36.355Z,4.20
2019-04-26T01:45:36.258Z,4.30
2019-04-26T01:46:36.184Z,4.40
2019-04-26T01:47:36.097Z,4.50
2019-04-26T01:48:36.022Z,4.40
2019-04-26T01:49:35.947Z,4.50
2019-04-26T01:50:35.859Z,4.30
2019-04-26T01:51:35.785Z,4.20
2019-04-26T01:52:35.700Z,4.40
2019-04-26T01:53:35.624Z,4.50
2019-04-26T01:54:35.536Z,4.60
2019-04-26T01:55:35.459Z,4.70
2019-04-26T01:56:35.386Z,4.70
2019-04-26T01:57:35.298Z,4.50
2019-04-26T01:58:35.223Z,4.80
2019-04-26T01:59:35.147Z,4.60
2019-04-26T02:00:35.061Z,4.70
2019-04-26T02:01:34.985Z,4.80
2019-04-26T02:02:34.910Z,4.30
2019-04-26T02:03:34.823Z,4.20
2019-04-26T02:04:34.736Z,4.50
2019-04-26T02:05:34.662Z,4.80
2019-04-26T02:06:35.312Z,4.50
2019-04-26T02:07:34.499Z,4.60
2019-04-26T02:08:34.424Z,4.80
2019-04-26T02:09:34.337Z,4.70
2019-04-26T02:10:34.261Z,4.70
2019-04-26T02:11:34.175Z,5.00
2019-04-26T02:12:34.099Z,4.60
2019-04-26T02:13:34.012Z,4.70
2019-04-26T02:14:33.937Z,5.00
2019-04-26T02:15:33.862Z,4.80
2019-04-26T02:16:33.777Z,4.70
2019-04-26T02:17:33.700Z,5.20
2019-04-26T02:18:33.658Z,4.60
2019-04-26T02:19:33.727Z,5.20
2019-04-26T02:20:33.936Z,4.50
2019-04-26T02:21:34.197Z,5.20
2019-04-26T02:22:34.100Z,5.10
2019-04-26T02:23:34.285Z,4.80
2019-04-26T02:24:33.139Z,5.00
2019-04-26T02:25:33.052Z,5.20
2019-04-26T02:26:33.000Z,4.70
2019-04-26T02:27:32.901Z,5.00
2019-04-26T02:28:32.813Z,4.90
2019-04-26T02:29:32.789Z,5.30
2019-04-26T02:30:33.302Z,5.40
2019-04-26T02:31:33.766Z,5.40
2019-04-26T02:32:33.328Z,5.00
2019-04-26T02:33:33.701Z,5.10
2019-04-26T02:34:33.831Z,5.00
2019-04-26T02:35:33.951Z,4.70
2019-04-26T02:36:48.003Z,5.30
2019-04-26T02:37:32.773Z,5.70
2019-04-26T02:38:33.412Z,5.20
2019-04-26T02:39:33.399Z,5.40
2019-04-26T02:40:33.053Z,5.40
2019-04-26T02:41:33.477Z,5.30
2019-04-26T02:42:33.946Z,5.40
2019-04-26T02:43:32.063Z,5.70
2019-04-26T02:44:32.979Z,5.20
2019-04-26T02:45:32.733Z,5.50
2019-04-26T02:46:32.482Z,5.20
2019-04-26T02:47:32.780Z,5.70
2019-04-26T02:48:32.664Z,5.50
2019-04-26T02:49:32.608Z,5.50
2019-04-26T02:50:32.729Z,5.20
2019-04-26T02:51:32.512Z,5.40
2019-04-26T02:52:31.989Z,5.80
2019-04-26T02:53:31.654Z,5.80
2019-04-26T02:54:31.582Z,5.60
2019-04-26T02:55:31.554Z,5.50
2019-04-26T02:56:31.735Z,5.90
2019-04-26T02:57:31.499Z,5.40
2019-04-26T02:58:31.928Z,5.80
2019-04-26T02:59:31.751Z,5.20
2019-04-26T03:00:31.614Z,6.20
2019-04-26T03:01:31.820Z,5.60
2019-04-26T03:02:32.293Z,5.90
2019-04-26T03:03:31.640Z,5.80
2019-04-26T03:04:30.959Z,5.80
2019-04-26T03:05:31.666Z,5.70
2019-04-26T03:06:30.733Z,5.80
2019-04-26T03:07:30.036Z,5.70
2019-04-26T03:08:29.866Z,6.50
2019-04-26T03:09:31.260Z,6.20
2019-04-26T03:10:31.801Z,5.70
2019-04-26T03:11:31.450Z,5.70
2019-04-26T03:12:30.892Z,5.70
2019-04-26T03:13:30.763Z,6.10
2019-04-26T03:14:29.119Z,6.30
2019-04-26T03:15:30.343Z,6.20
2019-04-26T03:16:28.959Z,6.30
2019-04-26T03:17:30.475Z,6.30
2019-04-26T03:18:28.797Z,6.70
2019-04-26T03:19:28.709Z,6.40
2019-04-26T03:20:28.633Z,6.40
2019-04-26T03:21:28.560Z,6.20
2019-04-26T03:22:28.469Z,6.00
2019-04-26T03:23:41.360Z,6.20
2019-04-26T03:24:28.317Z,6.40
2019-04-26T03:25:28.233Z,6.40
2019-04-26T03:26:28.144Z,6.40
2019-04-26T03:27:28.070Z,6.40
2019-04-26T03:28:27.984Z,6.30
2019-04-26T03:29:27.915Z,6.40
2019-04-26T03:30:27.834Z,6.20
2019-04-26T03:31:27.751Z,6.30
2019-04-26T03:32:27.680Z,6.80
2019-04-26T03:33:27.778Z,6.30
2019-04-26T03:34:27.510Z,6.90
2019-04-26T03:35:27.425Z,6.80
2019-04-26T03:36:27.363Z,7.40
2019-04-26T03:37:27.266Z,6.40
2019-04-26T03:38:27.198Z,6.80
2019-04-26T03:39:27.097Z,6.70
2019-04-26T03:40:27.079Z,6.40
2019-04-26T03:41:26.935Z,6.30
2019-04-26T03:42:26.860Z,6.50
2019-04-26T03:43:26.774Z,6.60
2019-04-26T03:44:26.696Z,6.40
2019-04-26T03:45:26.622Z,6.90
2019-04-26T03:46:26.538Z,7.10
2019-04-26T03:47:26.461Z,7.10
2019-04-26T03:48:26.372Z,6.20
2019-04-26T03:49:26.298Z,7.30
2019-04-26T03:50:26.213Z,7.10
2019-04-26T03:51:26.144Z,6.70
2019-04-26T03:52:26.067Z,6.80
2019-04-26T03:53:25.974Z,7.60
2019-04-26T03:54:25.898Z,7.40
2019-04-26T03:55:25.813Z,7.10
2019-04-26T03:56:25.736Z,6.90
2019-04-26T03:57:25.661Z,6.70
2019-04-26T03:58:25.584Z,6.70
2019-04-26T03:59:25.492Z,6.80
2019-04-26T04:00:25.422Z,7.60
2019-04-26T04:01:25.324Z,7.40
2019-04-26T04:02:25.264Z,6.80
2019-04-26T04:03:27.000Z,7.10
2019-04-26T04:04:25.092Z,7.50
2019-04-26T04:05:25.001Z,6.90
2019-04-26T04:06:24.925Z,6.90
2019-04-26T04:07:36.733Z,7.00
2019-04-26T04:08:24.766Z,7.20
2019-04-26T04:09:24.704Z,7.40
2019-04-26T04:10:24.601Z,7.00
2019-04-26T04:11:24.610Z,7.70
2019-04-26T04:12:24.590Z,6.90
2019-04-26T04:13:24.362Z,7.40
2019-04-26T04:14:24.378Z,7.40
2019-04-26T04:15:24.201Z,6.90
2019-04-26T04:16:24.114Z,7.90
2019-04-26T04:17:24.038Z,7.90
2019-04-26T04:18:23.973Z,7.20
2019-04-26T04:19:23.876Z,7.60
2019-04-26T04:20:23.804Z,7.10
2019-04-26T04:21:23.714Z,7.30
2019-04-26T04:22:23.642Z,8.10
2019-04-26T04:23:23.549Z,8.00
2019-04-26T04:24:23.489Z,7.80
2019-04-26T04:25:23.389Z,7.60
2019-04-26T04:26:23.332Z,7.90
2019-04-26T04:27:23.228Z,8.00
2019-04-26T04:28:23.154Z,8.40
2019-04-26T04:29:38.788Z,7.70
2019-04-26T04:30:23.010Z,8.50
2019-04-26T04:32:05.027Z,8.00
2019-04-26T04:33:52.469Z,7.50
2019-04-26T04:35:29.102Z,7.40
2019-04-26T04:36:29.026Z,8.30
2019-04-26T04:37:28.945Z,8.30
2019-04-26T04:38:28.866Z,7.60
2019-04-26T04:39:28.781Z,7.50
2019-04-26T04:40:28.704Z,8.20
2019-04-26T04:41:28.618Z,7.80
2019-04-26T04:42:28.545Z,7.40
2019-04-26T04:43:28.547Z,8.40
2019-04-26T04:44:28.380Z,7.90
2019-04-26T04:45:28.290Z,7.90
2019-04-26T04:46:28.220Z,8.80
2019-04-26T04:47:31.092Z,8.70
2019-04-26T04:48:28.054Z,8.30
2019-04-26T04:49:28.005Z,7.50
2019-04-26T04:50:27.898Z,8.00
2019-04-26T04:51:27.823Z,7.90
2019-04-26T04:52:27.729Z,8.40
2019-04-26T04:53:27.654Z,8.70
2019-04-26T04:54:27.570Z,7.90
2019-04-26T04:55:27.496Z,8.40
2019-04-26T04:56:27.418Z,8.20
2019-04-26T04:57:27.330Z,7.90
2019-04-26T04:58:27.255Z,8.30
2019-04-26T04:59:27.169Z,8.20
2019-04-26T05:00:27.096Z,8.70
2019-04-26T05:01:27.007Z,8.10
2019-04-26T05:02:26.930Z,8.60
2019-04-26T05:03:26.867Z,9.00
2019-04-26T05:04:26.768Z,8.70
2019-04-26T05:05:26.693Z,8.80
2019-04-26T05:06:26.605Z,9.50
2019-04-26T05:07:26.530Z,9.40
2019-04-26T05:08:26.457Z,8.60
2019-04-26T05:09:26.369Z,8.30
2019-04-26T05:10:26.293Z,8.60
2019-04-26T05:11:26.205Z,9.30
2019-04-26T05:12:26.161Z,9.10
2019-04-26T05:13:26.048Z,8.60
2019-04-26T05:14:25.968Z,8.80
2019-04-26T05:15:25.897Z,9.30
2019-04-26T05:16:25.818Z,9.50
2019-04-26T05:17:25.731Z,8.80
2019-04-26T05:18:25.649Z,9.20
2019-04-26T05:19:25.570Z,9.00
2019-04-26T05:20:25.495Z,9.00
2019-04-26T05:21:25.420Z,9.20
2019-04-26T05:22:25.332Z,9.40
2019-04-26T05:23:25.257Z,8.90
2019-04-26T05:24:25.180Z,9.20
2019-04-26T05:25:25.096Z,9.20
2019-04-26T05:26:25.008Z,9.00
2019-04-26T05:27:24.932Z,9.60
2019-04-26T05:28:24.858Z,9.20
2019-04-26T05:29:24.772Z,9.40
2019-04-26T05:30:24.695Z,9.70
2019-04-26T05:31:24.621Z,9.30
2019-04-26T05:32:24.534Z,9.20
2019-04-26T05:33:24.458Z,9.50
2019-04-26T05:34:24.392Z,9.80
2019-04-26T05:35:24.296Z,8.80
2019-04-26T05:36:24.234Z,9.30
2019-04-26T05:37:24.148Z,9.00
2019-04-26T05:38:24.059Z,9.60
2019-04-26T05:39:23.984Z,9.00
2019-04-26T05:40:23.897Z,9.00
2019-04-26T05:41:23.822Z,8.70
2019-04-26T05:42:23.747Z,9.10
2019-04-26T05:43:23.659Z,9.20
2019-04-26T05:44:23.585Z,8.90
2019-04-26T05:45:23.509Z,8.90
2019-04-26T05:46:23.423Z,8.50
2019-04-26T05:47:23.347Z,9.10
2019-04-26T05:48:23.260Z,9.70
2019-04-26T05:49:23.198Z,9.00
2019-04-26T05:50:23.109Z,9.00
2019-04-26T05:51:23.040Z,9.30
2019-04-26T05:52:22.952Z,9.30
2019-04-26T05:53:22.877Z,10.00
2019-04-26T05:54:22.800Z,9.70
2019-04-26T05:55:22.710Z,9.90
2019-04-26T05:56:22.647Z,9.90
2019-04-26T05:57:22.549Z,8.80
2019-04-26T05:58:22.502Z,9.50
2019-04-26T05:59:22.399Z,9.10
2019-04-26T06:00:22.311Z,8.80
2019-04-26T06:01:22.236Z,8.80
2019-04-26T06:02:22.151Z,9.80
2019-04-26T06:03:22.075Z,9.40
2019-04-26T06:04:21.999Z,9.50
2019-04-26T06:05:21.912Z,9.60
2019-04-26T06:06:21.837Z,9.30
2019-04-26T06:07:21.761Z,9.10
2019-04-26T06:08:31.020Z,9.30
2019-04-26T06:09:21.650Z,8.70
2019-04-26T06:10:21.533Z,9.40
2019-04-26T06:11:21.438Z,9.10
2019-04-26T06:12:21.362Z,9.60
2019-04-26T06:13:21.287Z,8.80
2019-04-26T06:14:21.201Z,9.40
2019-04-26T06:15:21.129Z,9.20
2019-04-26T06:16:21.038Z,8.80
2019-04-26T06:17:20.963Z,8.90
2019-04-26T06:18:20.888Z,9.00
2019-04-26T06:19:20.801Z,8.50
2019-04-26T06:20:22.984Z,8.70
2019-04-26T06:21:20.654Z,8.80
2019-04-26T06:22:20.563Z,8.40
2019-04-26T06:23:20.488Z,9.00
2019-04-26T06:24:20.413Z,8.80
2019-04-26T06:25:20.334Z,8.20
2019-04-26T06:26:20.252Z,8.50
2019-04-26T06:27:20.177Z,8.50
2019-04-26T06:28:20.089Z,8.10
2019-04-26T06:29:20.015Z,8.30
2019-04-26T06:30:19.939Z,7.70
2019-04-26T06:31:19.854Z,8.20
2019-04-26T06:32:19.816Z,7.70
2019-04-26T06:33:19.702Z,7.70
2019-04-26T06:34:19.616Z,7.80
2019-04-26T06:35:20.332Z,7.60
2019-04-26T06:36:19.465Z,7.80
2019-04-26T06:37:19.391Z,8.00
2019-04-26T06:38:19.308Z,8.10
2019-04-26T06:39:19.234Z,7.70
2019-04-26T06:40:19.153Z,7.30
2019-04-26T06:41:21.390Z,7.50
2019-04-26T06:42:19.026Z,8.00
2019-04-26T06:43:18.920Z,7.60
2019-04-26T06:44:18.834Z,8.10
2019-04-26T06:45:18.753Z,7.20
2019-04-26T06:46:18.679Z,8.10
2019-04-26T06:47:18.604Z,7.80
2019-04-26T06:48:18.516Z,7.70
2019-04-26T06:49:18.441Z,7.40
2019-04-26T06:50:18.366Z,8.00
2019-04-26T06:51:24.570Z,8.10
2019-04-26T06:52:18.205Z,7.50
2019-04-26T06:53:18.130Z,7.20
2019-04-26T06:54:18.054Z,7.10
2019-04-26T06:55:17.985Z,7.90
2019-04-26T06:56:17.892Z,7.40
2019-04-26T06:57:17.818Z,8.00
2019-04-26T06:58:17.744Z,7.70
2019-04-26T06:59:17.667Z,7.60
2019-04-26T07:00:17.593Z,7.40
2019-04-26T07:01:17.506Z,7.70
2019-04-26T07:02:17.431Z,7.10
2019-04-26T07:03:17.355Z,7.30
2019-04-26T07:04:17.273Z,7.70
2019-04-26T07:05:17.193Z,7.40
2019-04-26T07:06:17.118Z,7.40
2019-04-26T07:07:17.043Z,7.10
2019-04-26T07:08:17.096Z,6.80
2019-04-26T07:09:16.881Z,7.20
2019-04-26T07:10:16.809Z,7.30
2019-04-26T07:11:16.732Z,6.80
2019-04-26T07:12:16.656Z,7.00
2019-04-26T07:13:16.583Z,7.10
2019-04-26T07:14:16.494Z,6.90
2019-04-26T07:15:27.975Z,7.00
2019-04-26T07:16:22.030Z,7.10
2019-04-26T07:17:16.269Z,7.10
2019-04-26T07:18:16.194Z,7.50
2019-04-26T07:19:16.112Z,7.10
2019-04-26T07:20:16.032Z,7.10
2019-04-26T07:21:16.428Z,6.70
2019-04-26T07:22:15.883Z,6.50
2019-04-26T07:23:15.807Z,6.40
2019-04-26T07:24:15.733Z,7.50
2019-04-26T07:25:17.795Z,6.50
2019-04-26T07:26:15.570Z,7.10
2019-04-26T07:27:15.502Z,7.00
2019-04-26T07:28:15.442Z,6.60
2019-04-26T07:29:15.351Z,6.60
2019-04-26T07:30:15.305Z,6.90
2019-04-26T07:31:15.195Z,6.90
2019-04-26T07:32:15.112Z,6.40
2019-04-26T07:33:15.034Z,7.10
2019-04-26T07:34:14.959Z,7.00
2019-04-26T07:35:14.884Z,7.00
2019-04-26T07:36:14.810Z,6.70
2019-04-26T07:37:14.734Z,6.70
2019-04-26T07:38:14.660Z,6.20
2019-04-26T07:39:20.033Z,6.50
2019-04-26T07:40:14.515Z,6.40
2019-04-26T07:41:14.434Z,6.60
2019-04-26T07:42:14.360Z,6.70
2019-04-26T07:43:14.284Z,6.50
2019-04-26T07:44:14.214Z,6.40
2019-04-26T07:45:14.136Z,6.50
2019-04-26T07:46:14.062Z,6.20
2019-04-26T07:47:15.124Z,6.10
2019-04-26T07:48:14.623Z,6.60
2019-04-26T07:49:13.835Z,5.90
2019-04-26T07:50:14.184Z,6.30
2019-04-26T07:51:13.714Z,6.50
2019-04-26T07:52:13.614Z,5.90
2019-04-26T07:53:13.537Z,6.70
2019-04-26T07:54:13.462Z,6.50
2019-04-26T07:55:13.386Z,6.40
2019-04-26T07:56:13.575Z,6.70
2019-04-26T07:57:13.250Z,6.30
2019-04-26T07:58:13.197Z,6.40
2019-04-26T07:59:13.087Z,6.50
2019-04-26T08:00:13.079Z,6.10
2019-04-26T08:01:14.044Z,5.70
2019-04-26T08:02:13.415Z,6.10
2019-04-26T08:03:13.036Z,6.10
2019-04-26T08:04:12.713Z,6.30
2019-04-26T08:05:13.529Z,6.50
2019-04-26T08:06:13.681Z,6.20
2019-04-26T08:07:13.243Z,6.10
2019-04-26T08:08:12.836Z,6.00
2019-04-26T08:09:25.983Z,6.40
2019-04-26T08:10:12.346Z,6.30
2019-04-26T08:11:12.914Z,6.50
2019-04-26T08:12:12.257Z,6.50
2019-04-26T08:13:13.015Z,6.50
2019-04-26T08:14:12.579Z,6.90
2019-04-26T08:15:11.900Z,6.30
2019-04-26T08:16:12.393Z,6.10
2019-04-26T08:17:12.515Z,6.40
2019-04-26T08:18:11.663Z,5.90
2019-04-26T08:19:12.574Z,5.90
2019-04-26T08:20:12.604Z,5.80
2019-04-26T08:21:15.210Z,6.10
2019-04-26T08:22:17.982Z,6.30
2019-04-26T08:23:36.014Z,5.60
2019-04-26T08:24:11.213Z,6.10
2019-04-26T08:25:11.139Z,5.80
2019-04-26T08:26:11.168Z,6.10
2019-04-26T08:27:18.840Z,6.10
2019-04-26T08:28:11.995Z,6.50
2019-04-26T08:29:10.840Z,5.60
2019-04-26T08:30:14.479Z,6.10
2019-04-26T08:31:10.873Z,5.40
2019-04-26T08:32:11.373Z,5.50
2019-04-26T08:33:12.864Z,6.00
2019-04-26T08:34:10.467Z,5.90
2019-04-26T08:35:16.096Z,5.30
2019-04-26T08:36:10.566Z,5.90
2019-04-26T08:37:10.482Z,6.30
2019-04-26T08:38:15.927Z,6.00
2019-04-26T08:39:10.889Z,6.10
2019-04-26T08:40:10.015Z,5.70
2019-04-26T08:41:09.998Z,5.90
2019-04-26T08:42:18.240Z,5.70
2019-04-26T08:43:10.869Z,6.30
2019-04-26T08:44:09.805Z,6.30
2019-04-26T08:45:12.486Z,5.90
2019-04-26T08:46:12.593Z,6.10
2019-04-26T08:47:14.094Z,6.10
2019-04-26T08:48:10.368Z,6.40
2019-04-26T08:49:09.673Z,6.30
2019-04-26T08:50:12.246Z,5.90
2019-04-26T08:51:09.397Z,6.00
2019-04-26T08:52:14.713Z,6.20
2019-04-26T08:53:09.029Z,6.10
2019-04-26T08:54:08.966Z,5.70
2019-04-26T08:55:08.892Z,5.80
2019-04-26T08:56:11.623Z,5.50
2019-04-26T08:57:08.742Z,5.40
2019-04-26T08:58:08.668Z,5.60
2019-04-26T08:59:08.592Z,5.70
2019-04-26T09:00:08.517Z,5.50
2019-04-26T09:01:08.455Z,5.50
2019-04-26T09:02:08.397Z,5.40
2019-04-26T09:03:11.568Z,5.20
2019-04-26T09:04:08.230Z,5.80
2019-04-26T09:05:08.168Z,5.40
2019-04-26T09:06:08.093Z,5.40
2019-04-26T09:07:08.018Z,5.60
2019-04-26T09:08:07.955Z,5.10
2019-04-26T09:09:07.895Z,5.10
2019-04-26T09:10:11.316Z,5.00
2019-04-26T09:11:07.732Z,4.90
2019-04-26T09:12:08.289Z,5.10
2019-04-26T09:13:07.594Z,5.30
2019-04-26T09:14:07.519Z,5.80
2019-04-26T09:15:07.444Z,5.50
2019-04-26T09:16:07.423Z,5.80
2019-04-26T09:17:07.296Z,5.50
2019-04-26T09:18:07.244Z,5.60
2019-04-26T09:19:07.158Z,5.70
2019-04-26T09:20:07.988Z,6.00
2019-04-26T09:21:07.006Z,5.70
2019-04-26T09:22:12.735Z,5.70
2019-04-26T09:23:06.872Z,5.40
2019-04-26T09:24:08.279Z,5.80
2019-04-26T09:25:06.720Z,5.90
2019-04-26T09:26:08.606Z,6.10
2019-04-26T09:27:06.570Z,5.60
2019-04-26T09:28:06.497Z,6.10
2019-04-26T09:29:06.433Z,5.50
2019-04-26T09:30:06.519Z,5.80
2019-04-26T09:31:06.287Z,5.60
2019-04-26T09:32:06.207Z,5.60
2019-04-26T09:33:06.186Z,5.80
2019-04-26T09:34:06.385Z,5.60
2019-04-26T09:35:05.997Z,5.80
2019-04-26T09:36:05.923Z,5.90
2019-04-26T09:37:05.846Z,6.40
2019-04-26T09:38:05.784Z,5.40
2019-04-26T09:39:08.232Z,5.70
2019-04-26T09:40:10.545Z,6.00
2019-04-26T09:41:05.560Z,5.80
2019-04-26T09:42:09.484Z,5.20
2019-04-26T09:43:05.422Z,5.60
2019-04-26T09:44:05.359Z,5.70
2019-04-26T09:45:05.272Z,5.40
2019-04-26T09:46:05.209Z,5.70
2019-04-26T09:47:05.134Z,5.50
2019-04-26T09:48:05.059Z,5.50
2019-04-26T09:49:06.928Z,6.10
2019-04-26T09:50:04.969Z,6.10
2019-04-26T09:51:04.848Z,5.80
2019-04-26T09:52:04.776Z,5.80
2019-04-26T09:53:04.698Z,6.20
2019-04-26T09:54:04.623Z,6.00
2019-04-26T09:55:04.548Z,5.80
2019-04-26T09:56:04.479Z,6.10
2019-04-26T09:57:04.410Z,6.50
2019-04-26T09:58:04.349Z,5.90
2019-04-26T09:59:05.597Z,6.20
2019-04-26T10:00:04.199Z,5.40
2019-04-26T10:01:06.095Z,5.80
2019-04-26T10:02:04.049Z,5.50
2019-04-26T10:03:08.051Z,5.80
2019-04-26T10:04:03.887Z,5.80
2019-04-26T10:05:03.828Z,5.40
2019-04-26T10:06:03.750Z,5.50
2019-04-26T10:07:04.203Z,5.40
2019-04-26T10:08:03.599Z,5.50
2019-04-26T10:09:03.525Z,5.60
2019-04-26T10:10:03.455Z,5.50
2019-04-26T10:11:05.803Z,5.10
2019-04-26T10:12:03.299Z,5.70
2019-04-26T10:13:03.236Z,5.40
2019-04-26T10:14:03.174Z,5.20
2019-04-26T10:15:03.086Z,5.80
2019-04-26T10:16:04.260Z,5.40
2019-04-26T10:17:02.937Z,5.00
2019-04-26T10:18:02.862Z,5.30
2019-04-26T10:19:02.787Z,5.40
2019-04-26T10:20:02.717Z,5.80
2019-04-26T10:21:02.637Z,5.50
2019-04-26T10:22:02.575Z,5.50
2019-04-26T10:23:02.502Z,5.60
2019-04-26T10:24:02.425Z,5.40
2019-04-26T10:25:06.829Z,5.20
2019-04-26T10:26:02.275Z,5.10
2019-04-26T10:27:03.313Z,5.50
2019-04-26T10:28:02.128Z,5.50
2019-04-26T10:29:02.061Z,5.40
2019-04-26T10:30:07.858Z,5.20
2019-04-26T10:31:01.927Z,5.10
2019-04-26T10:32:01.840Z,5.20
2019-04-26T10:33:02.185Z,5.00
2019-04-26T10:34:01.689Z,5.30
2019-04-26T10:35:01.615Z,5.20
2019-04-26T10:36:01.539Z,5.30
2019-04-26T10:37:05.789Z,5.20
2019-04-26T10:38:01.390Z,5.00
2019-04-26T10:39:01.330Z,5.00
2019-04-26T10:40:01.253Z,5.20
2019-04-26T10:41:01.177Z,5.20
2019-04-26T10:42:01.109Z,5.70
2019-04-26T10:43:01.032Z,4.80
2019-04-26T10:44:00.954Z,5.50
2019-04-26T10:45:00.879Z,5.80
2019-04-26T10:46:00.821Z,5.10
2019-04-26T10:47:04.477Z,4.80
2019-04-26T10:48:00.665Z,5.60
2019-04-26T10:49:08.484Z,5.20
2019-04-26T10:50:00.516Z,5.20
2019-04-26T10:51:03.226Z,5.40
2019-04-26T10:52:00.379Z,5.50
2019-04-26T10:53:00.318Z,5.20
2019-04-26T10:54:01.556Z,5.30
2019-04-26T10:55:00.171Z,5.20
2019-04-26T10:56:00.090Z,5.00
2019-04-26T10:57:00.017Z,5.20
2019-04-26T10:57:59.955Z,4.90
2019-04-26T10:58:59.880Z,4.70
2019-04-26T10:59:59.804Z,5.20
2019-04-26T11:00:59.741Z,5.00
2019-04-26T11:01:59.671Z,4.70
2019-04-26T11:03:00.099Z,4.90
2019-04-26T11:03:59.531Z,4.90
2019-04-26T11:04:59.468Z,4.90
2019-04-26T11:05:59.393Z,4.30
2019-04-26T11:07:02.039Z,4.60
2019-04-26T11:07:59.256Z,4.80
2019-04-26T11:08:59.193Z,4.40
2019-04-26T11:09:59.120Z,4.20
2019-04-26T11:10:59.059Z,4.10
2019-04-26T11:11:58.981Z,4.60
2019-04-26T11:12:58.917Z,4.50
2019-04-26T11:13:58.858Z,4.20
2019-04-26T11:14:58.781Z,4.00
2019-04-26T11:16:02.284Z,4.20
2019-04-26T11:16:58.656Z,4.30
2019-04-26T11:17:58.581Z,4.30
2019-04-26T11:19:01.248Z,3.90
2019-04-26T11:19:58.456Z,4.30
2019-04-26T11:20:58.383Z,4.40
2019-04-26T11:21:58.319Z,4.00
2019-04-26T11:22:58.257Z,4.60
2019-04-26T11:23:58.195Z,4.30
2019-04-26T11:24:58.131Z,4.00
2019-04-26T11:26:01.528Z,4.00
2019-04-26T11:26:57.994Z,4.40
2019-04-26T11:27:57.933Z,4.50
2019-04-26T11:28:57.869Z,4.20
2019-04-26T11:29:59.284Z,4.20
2019-04-26T11:30:57.781Z,4.90
2019-04-26T11:31:58.459Z,4.10
2019-04-26T11:32:57.607Z,4.00
2019-04-26T11:34:05.033Z,3.90
2019-04-26T11:34:58.652Z,4.10
2019-04-26T11:35:57.416Z,4.30
2019-04-26T11:36:57.347Z,3.90
2019-04-26T11:37:57.295Z,4.10
2019-04-26T11:38:57.242Z,4.00
2019-04-26T11:39:57.160Z,4.20
2019-04-26T11:41:06.019Z,4.00
2019-04-26T11:41:57.021Z,3.70
2019-04-26T11:42:56.962Z,4.10
2019-04-26T11:43:56.895Z,4.10
2019-04-26T11:45:05.908Z,3.90
2019-04-26T11:46:04.223Z,3.80
2019-04-26T11:46:59.327Z,4.10
2019-04-26T11:47:56.737Z,3.90
2019-04-26T11:48:59.201Z,3.90
2019-04-26T11:49:56.533Z,3.90
2019-04-26T11:50:56.457Z,3.60
2019-04-26T11:51:58.690Z,4.30
2019-04-26T11:52:56.310Z,3.90
2019-04-26T11:53:56.246Z,3.80
2019-04-26T11:54:56.251Z,3.70
2019-04-26T11:55:56.111Z,4.00
2019-04-26T11:56:56.048Z,3.70
2019-04-26T11:57:55.987Z,4.30
2019-04-26T11:58:56.777Z,3.90
2019-04-26T11:59:55.849Z,3.90
2019-04-26T12:00:55.789Z,4.00
2019-04-26T12:01:55.711Z,4.10
2019-04-26T12:02:55.650Z,4.10
2019-04-26T12:03:59.253Z,3.90
2019-04-26T12:04:55.511Z,3.70
2019-04-26T12:05:55.448Z,4.10
2019-04-26T12:06:55.373Z,3.60
2019-04-26T12:07:55.310Z,3.80
2019-04-26T12:08:55.248Z,3.30
2019-04-26T12:09:55.176Z,3.60
2019-04-26T12:10:55.112Z,3.60
2019-04-26T12:12:04.580Z,3.10
2019-04-26T12:13:05.193Z,3.50
2019-04-26T12:13:55.369Z,3.20
2019-04-26T12:14:54.836Z,3.30
2019-04-26T12:15:54.777Z,3.20
2019-04-26T12:16:59.091Z,3.30
2019-04-26T12:17:58.632Z,3.00
2019-04-26T12:18:54.563Z,3.40
2019-04-26T12:19:54.487Z,3.40
2019-04-26T12:20:57.186Z,3.30
2019-04-26T12:21:54.350Z,3.10
2019-04-26T12:22:54.274Z,3.10
2019-04-26T12:23:55.487Z,3.00
2019-04-26T12:24:54.137Z,3.00
2019-04-26T12:25:54.116Z,2.80
2019-04-26T12:26:56.008Z,2.90
2019-04-26T12:27:54.002Z,2.70
2019-04-26T12:28:53.864Z,2.70
2019-04-26T12:29:53.853Z,2.70
2019-04-26T12:30:54.256Z,2.70
2019-04-26T12:31:53.651Z,2.40
2019-04-26T12:32:53.596Z,2.30
2019-04-26T12:33:53.514Z,2.90
2019-04-26T12:34:53.454Z,2.50
2019-04-26T12:35:57.160Z,2.40
2019-04-26T12:36:53.314Z,2.50
2019-04-26T12:37:54.685Z,2.80
2019-04-26T12:38:53.176Z,2.30
2019-04-26T12:39:53.114Z,2.60
2019-04-26T12:40:53.059Z,2.50
2019-04-26T12:41:52.976Z,2.60
2019-04-26T12:42:52.935Z,2.50
2019-04-26T12:43:54.600Z,2.40
2019-04-26T12:44:52.781Z,2.40
2019-04-26T12:45:52.702Z,2.20
2019-04-26T12:46:52.640Z,2.30
2019-04-26T12:47:52.565Z,2.30
2019-04-26T12:48:52.502Z,2.30
2019-04-26T12:49:54.446Z,2.10
2019-04-26T12:50:52.365Z,2.40
2019-04-26T12:51:52.312Z,2.70
2019-04-26T12:52:55.759Z,2.50
2019-04-26T12:53:52.177Z,2.30
2019-04-26T12:54:52.104Z,2.50
2019-04-26T12:55:53.216Z,2.40
2019-04-26T12:56:51.967Z,2.50
2019-04-26T12:57:51.892Z,2.10
2019-04-26T12:58:51.851Z,2.30
2019-04-26T12:59:51.754Z,1.90
2019-04-26T13:00:54.253Z,1.90
2019-04-26T13:02:04.687Z,2.10
2019-04-26T13:02:54.238Z,2.50
2019-04-26T13:03:51.479Z,2.30
2019-04-26T13:04:51.417Z,2.40
2019-04-26T13:05:57.665Z,2.20
2019-04-26T13:06:51.267Z,2.30
2019-04-26T13:07:51.204Z,1.90
2019-04-26T13:08:51.529Z,2.30
2019-04-26T13:09:51.080Z,2.00
2019-04-26T13:10:50.995Z,2.20
2019-04-26T13:11:52.870Z,2.10
2019-04-26T13:12:50.856Z,2.10
2019-04-26T13:13:51.054Z,2.20
2019-04-26T13:14:50.720Z,2.10
2019-04-26T13:15:51.758Z,2.10
2019-04-26T13:16:50.568Z,2.10
2019-04-26T13:17:50.505Z,1.90
2019-04-26T13:18:50.430Z,1.90
2019-04-26T13:19:53.979Z,2.10